createdAt,value
2018-05-11T00:00:04.089Z,95991
2018-05-11T00:00:41.791Z,95988
2018-05-11T00:01:20.045Z,95991
2018-05-11T00:01:58.367Z,95983
2018-05-11T00:02:35.923Z,95986
2018-05-11T00:03:13.325Z,95987
2018-05-11T00:03:50.892Z,95991
2018-05-11T00:04:28.485Z,95988
2018-05-11T00:05:06.019Z,95988
2018-05-11T00:05:44.129Z,95983
2018-05-11T00:06:21.746Z,95980
2018-05-11T00:06:59.352Z,95986
2018-05-11T00:07:36.856Z,95986
2018-05-11T00:08:14.258Z,95982
2018-05-11T00:08:51.816Z,95982
2018-05-11T00:09:29.412Z,95981
2018-05-11T00:10:06.767Z,95986
2018-05-11T00:10:44.158Z,95984
2018-05-11T00:11:21.748Z,95987
2018-05-11T00:11:59.344Z,95986
2018-05-11T00:12:36.928Z,95984
2018-05-11T00:13:14.302Z,95980
2018-05-11T00:13:51.867Z,95980
2018-05-11T00:14:29.637Z,95984
2018-05-11T00:15:07.154Z,95979
2018-05-11T00:15:45.524Z,95981
2018-05-11T00:16:23.807Z,95984
2018-05-11T00:17:01.939Z,95982
2018-05-11T00:17:40.038Z,95987
2018-05-11T00:18:17.478Z,95983
2018-05-11T00:18:55.065Z,95982
2018-05-11T00:19:32.615Z,95977
2018-05-11T00:20:09.993Z,95982
2018-05-11T00:20:47.534Z,95984
2018-05-11T00:21:25.065Z,95982
2018-05-11T00:22:02.423Z,95986
2018-05-11T00:22:39.763Z,95983
2018-05-11T00:23:17.320Z,95983
2018-05-11T00:23:55.438Z,95987
2018-05-11T00:24:32.914Z,95987
2018-05-11T00:25:11.119Z,95988
2018-05-11T00:25:49.403Z,95985
2018-05-11T00:26:27.681Z,95988
2018-05-11T00:27:05.255Z,95984
2018-05-11T00:27:42.616Z,95983
2018-05-11T00:28:20.816Z,95981
2018-05-11T00:28:58.339Z,95983
2018-05-11T00:29:36.051Z,95986
2018-05-11T00:30:14.311Z,95981
2018-05-11T00:30:52.523Z,95980
2018-05-11T00:31:30.792Z,95981
2018-05-11T00:32:08.370Z,95983
2018-05-11T00:32:45.981Z,95978
2018-05-11T00:33:23.481Z,95980
2018-05-11T00:34:01.031Z,95977
2018-05-11T00:34:39.349Z,95977
2018-05-11T00:35:16.938Z,95984
2018-05-11T00:35:54.537Z,95979
2018-05-11T00:36:32.104Z,95982
2018-05-11T00:37:09.678Z,95978
2018-05-11T00:37:48.067Z,95981
2018-05-11T00:38:25.402Z,95982
2018-05-11T00:39:03.554Z,95968
2018-05-11T00:39:41.121Z,95979
2018-05-11T00:40:18.681Z,95983
2018-05-11T00:40:56.780Z,95979
2018-05-11T00:41:34.160Z,95976
2018-05-11T00:42:11.572Z,95981
2018-05-11T00:42:49.073Z,95977
2018-05-11T00:43:26.614Z,95975
2018-05-11T00:44:04.077Z,95977
2018-05-11T00:44:42.400Z,95980
2018-05-11T00:45:19.971Z,95977
2018-05-11T00:45:57.609Z,95986
2018-05-11T00:46:35.120Z,95984
2018-05-11T00:47:12.717Z,95982
2018-05-11T00:47:50.109Z,95981
2018-05-11T00:48:27.658Z,95982
2018-05-11T00:49:05.160Z,95980
2018-05-11T00:49:42.761Z,95981
2018-05-11T00:50:20.332Z,95980
2018-05-11T00:50:57.954Z,95982
2018-05-11T00:51:35.427Z,95984
2018-05-11T00:52:12.821Z,95983
2018-05-11T00:52:51.150Z,95985
2018-05-11T00:53:28.732Z,95988
2018-05-11T00:54:06.239Z,95985
2018-05-11T00:54:44.511Z,95990
2018-05-11T00:55:21.984Z,95991
2018-05-11T00:55:59.618Z,95992
2018-05-11T00:56:37.081Z,95990
2018-05-11T00:57:14.649Z,95991
2018-05-11T00:57:51.961Z,95987
2018-05-11T00:58:29.425Z,95991
2018-05-11T00:59:06.949Z,95990
2018-05-11T00:59:44.422Z,95985
2018-05-11T01:00:22.000Z,95990
2018-05-11T01:00:59.599Z,95993
2018-05-11T01:01:37.775Z,95988
2018-05-11T01:02:15.097Z,95988
2018-05-11T01:02:52.519Z,95994
2018-05-11T01:03:29.973Z,95993
2018-05-11T01:04:07.535Z,95991
2018-05-11T01:04:45.595Z,95987
2018-05-11T01:05:23.186Z,95990
2018-05-11T01:06:00.755Z,95992
2018-05-11T01:06:38.832Z,95991
2018-05-11T01:07:16.967Z,95992
2018-05-11T01:07:54.527Z,95991
2018-05-11T01:08:31.935Z,95989
2018-05-11T01:09:09.438Z,95989
2018-05-11T01:09:46.995Z,95988
2018-05-11T01:10:25.141Z,95984
2018-05-11T01:11:03.255Z,95988
2018-05-11T01:11:41.579Z,95985
2018-05-11T01:12:19.870Z,95984
2018-05-11T01:12:57.326Z,95981
2018-05-11T01:13:34.890Z,95983
2018-05-11T01:14:12.306Z,95980
2018-05-11T01:14:49.837Z,95981
2018-05-11T01:15:27.166Z,95977
2018-05-11T01:16:04.730Z,95981
2018-05-11T01:16:42.062Z,95982
2018-05-11T01:17:20.479Z,95977
2018-05-11T01:17:58.099Z,95977
2018-05-11T01:18:35.680Z,95982
2018-05-11T01:19:13.950Z,95978
2018-05-11T01:19:52.050Z,95978
2018-05-11T01:20:29.373Z,95978
2018-05-11T01:21:06.714Z,95983
2018-05-11T01:21:44.287Z,95976
2018-05-11T01:22:21.881Z,95976
2018-05-11T01:22:59.496Z,95981
2018-05-11T01:23:37.010Z,95982
2018-05-11T01:24:14.377Z,95985
2018-05-11T01:24:51.901Z,95982
2018-05-11T01:25:30.181Z,95983
2018-05-11T01:26:07.739Z,95983
2018-05-11T01:26:45.257Z,95989
2018-05-11T01:27:22.782Z,95986
2018-05-11T01:28:00.303Z,95985
2018-05-11T01:28:38.016Z,95984
2018-05-11T01:29:16.215Z,95982
2018-05-11T01:29:53.666Z,95986
2018-05-11T01:30:31.104Z,95987
2018-05-11T01:31:08.630Z,95984
2018-05-11T01:31:46.830Z,95989
2018-05-11T01:32:25.113Z,95987
2018-05-11T01:33:03.319Z,95990
2018-05-11T01:33:40.808Z,95989
2018-05-11T01:34:18.357Z,95993
2018-05-11T01:34:55.998Z,95991
2018-05-11T01:35:33.552Z,95989
2018-05-11T01:36:10.979Z,95989
2018-05-11T01:36:48.347Z,95992
2018-05-11T01:37:25.730Z,95982
2018-05-11T01:38:03.148Z,95992
2018-05-11T01:38:40.624Z,95990
2018-05-11T01:39:18.168Z,95988
2018-05-11T01:39:56.478Z,95988
2018-05-11T01:40:34.049Z,95992
2018-05-11T01:41:11.784Z,95987
2018-05-11T01:41:49.259Z,95989
2018-05-11T01:42:26.787Z,95992
2018-05-11T01:43:04.149Z,95993
2018-05-11T01:43:41.518Z,95993
2018-05-11T01:44:19.107Z,95990
2018-05-11T01:44:56.676Z,95993
2018-05-11T01:45:34.231Z,95991
2018-05-11T01:46:11.832Z,95995
2018-05-11T01:46:50.187Z,95993
2018-05-11T01:47:27.844Z,95993
2018-05-11T01:48:05.267Z,95994
2018-05-11T01:48:42.798Z,95989
2018-05-11T01:49:20.151Z,95990
2018-05-11T01:49:57.710Z,95987
2018-05-11T01:50:35.106Z,95988
2018-05-11T01:51:12.610Z,95991
2018-05-11T01:51:50.203Z,95994
2018-05-11T01:52:27.731Z,95991
2018-05-11T01:53:05.253Z,95981
2018-05-11T01:53:42.674Z,95985
2018-05-11T01:54:20.240Z,95987
2018-05-11T01:54:57.755Z,95989
2018-05-11T01:55:35.292Z,95983
2018-05-11T01:56:12.842Z,95983
2018-05-11T01:56:51.126Z,95985
2018-05-11T01:57:29.447Z,95989
2018-05-11T01:58:07.717Z,95989
2018-05-11T01:58:45.193Z,95982
2018-05-11T01:59:22.559Z,95981
2018-05-11T01:59:59.898Z,95984
2018-05-11T02:00:38.168Z,95987
2018-05-11T02:01:15.552Z,95989
2018-05-11T02:01:53.175Z,95985
2018-05-11T02:02:30.697Z,95985
2018-05-11T02:03:08.199Z,95988
2018-05-11T02:03:45.772Z,95989
2018-05-11T02:04:23.370Z,95992
2018-05-11T02:05:00.957Z,95981
2018-05-11T02:05:39.051Z,95982
2018-05-11T02:06:16.631Z,95982
2018-05-11T02:06:54.056Z,95986
2018-05-11T02:07:31.354Z,95986
2018-05-11T02:08:08.932Z,95986
2018-05-11T02:08:46.503Z,95983
2018-05-11T02:09:24.017Z,95985
2018-05-11T02:10:01.367Z,95985
2018-05-11T02:10:38.914Z,95984
2018-05-11T02:11:16.313Z,95985
2018-05-11T02:11:53.832Z,95982
2018-05-11T02:12:31.393Z,95986
2018-05-11T02:13:08.944Z,95986
2018-05-11T02:13:46.326Z,95985
2018-05-11T02:14:24.486Z,95985
2018-05-11T02:15:02.023Z,95986
2018-05-11T02:15:39.565Z,95982
2018-05-11T02:16:16.950Z,95978
2018-05-11T02:16:54.318Z,95982
2018-05-11T02:17:31.712Z,95980
2018-05-11T02:18:09.003Z,95981
2018-05-11T02:18:46.608Z,95979
2018-05-11T02:19:24.971Z,95982
2018-05-11T02:20:03.079Z,95977
2018-05-11T02:20:41.210Z,95982
2018-05-11T02:21:19.364Z,95981
2018-05-11T02:21:56.951Z,95980
2018-05-11T02:22:34.643Z,95976
2018-05-11T02:23:12.114Z,95978
2018-05-11T02:23:49.698Z,95981
2018-05-11T02:24:27.286Z,95979
2018-05-11T02:25:04.891Z,95977
2018-05-11T02:25:42.473Z,95976
2018-05-11T02:26:20.031Z,95978
2018-05-11T02:26:57.659Z,95978
2018-05-11T02:27:35.208Z,95973
2018-05-11T02:28:12.779Z,95972
2018-05-11T02:28:50.353Z,95972
2018-05-11T02:29:27.856Z,95970
2018-05-11T02:30:05.410Z,95972
2018-05-11T02:30:43.026Z,95972
2018-05-11T02:31:20.630Z,95973
2018-05-11T02:31:58.154Z,95970
2018-05-11T02:32:35.718Z,95973
2018-05-11T02:33:13.036Z,95972
2018-05-11T02:33:50.666Z,95970
2018-05-11T02:34:29.088Z,95961
2018-05-11T02:35:06.533Z,95965
2018-05-11T02:35:43.919Z,95967
2018-05-11T02:36:21.269Z,95964
2018-05-11T02:36:59.435Z,95965
2018-05-11T02:37:37.051Z,95967
2018-05-11T02:38:14.637Z,95968
2018-05-11T02:38:52.218Z,95967
2018-05-11T02:39:30.454Z,95965
2018-05-11T02:40:08.044Z,95965
2018-05-11T02:40:45.618Z,95961
2018-05-11T02:41:22.971Z,95962
2018-05-11T02:42:00.554Z,95959
2018-05-11T02:42:37.948Z,95958
2018-05-11T02:43:15.682Z,95959
2018-05-11T02:43:53.825Z,95948
2018-05-11T02:44:31.423Z,95953
2018-05-11T02:45:09.041Z,95954
2018-05-11T02:45:46.613Z,95952
2018-05-11T02:46:24.141Z,95955
2018-05-11T02:47:01.751Z,95959
2018-05-11T02:47:39.242Z,95954
2018-05-11T02:48:16.821Z,95954
2018-05-11T02:48:55.101Z,95956
2018-05-11T02:49:32.666Z,95955
2018-05-11T02:50:10.268Z,95959
2018-05-11T02:50:48.607Z,95952
2018-05-11T02:51:26.141Z,95953
2018-05-11T02:52:03.495Z,95955
2018-05-11T02:52:41.062Z,95956
2018-05-11T02:53:18.601Z,95955
2018-05-11T02:53:56.160Z,95955
2018-05-11T02:54:33.488Z,95956
2018-05-11T02:55:10.976Z,95960
2018-05-11T02:55:48.546Z,95959
2018-05-11T02:56:26.036Z,95960
2018-05-11T02:57:04.332Z,95957
2018-05-11T02:57:41.908Z,95959
2018-05-11T02:58:19.511Z,95958
2018-05-11T02:58:56.892Z,95958
2018-05-11T02:59:34.346Z,95958
2018-05-11T03:00:12.550Z,95960
2018-05-11T03:00:50.155Z,95961
2018-05-11T03:01:27.519Z,95959
2018-05-11T03:02:04.884Z,95961
2018-05-11T03:02:42.378Z,95961
2018-05-11T03:03:19.872Z,95957
2018-05-11T03:03:58.058Z,95962
2018-05-11T03:04:35.522Z,95965
2018-05-11T03:05:12.887Z,95961
2018-05-11T03:05:50.318Z,95959
2018-05-11T03:06:27.708Z,95965
2018-05-11T03:07:05.263Z,95958
2018-05-11T03:07:42.836Z,95963
2018-05-11T03:08:20.461Z,95955
2018-05-11T03:08:58.803Z,95954
2018-05-11T03:09:36.895Z,95954
2018-05-11T03:10:14.993Z,95958
2018-05-11T03:10:52.632Z,95957
2018-05-11T03:11:30.152Z,95956
2018-05-11T03:12:07.755Z,95955
2018-05-11T03:12:45.100Z,95954
2018-05-11T03:13:23.221Z,95951
2018-05-11T03:14:00.596Z,95952
2018-05-11T03:14:38.105Z,95955
2018-05-11T03:15:15.536Z,95951
2018-05-11T03:15:52.931Z,95953
2018-05-11T03:16:30.510Z,95956
2018-05-11T03:17:08.087Z,95956
2018-05-11T03:17:45.709Z,95957
2018-05-11T03:18:23.143Z,95954
2018-05-11T03:19:00.750Z,95958
2018-05-11T03:19:38.335Z,95954
2018-05-11T03:20:15.865Z,95957
2018-05-11T03:20:53.247Z,95957
2018-05-11T03:21:30.575Z,95955
2018-05-11T03:22:08.850Z,95956
2018-05-11T03:22:47.134Z,95955
2018-05-11T03:23:25.460Z,95955
2018-05-11T03:24:03.018Z,95954
2018-05-11T03:24:41.193Z,95958
2018-05-11T03:25:19.301Z,95954
2018-05-11T03:25:57.414Z,95951
2018-05-11T03:26:35.040Z,95956
2018-05-11T03:27:12.526Z,95956
2018-05-11T03:27:49.835Z,95959
2018-05-11T03:28:27.172Z,95960
2018-05-11T03:29:04.799Z,95956
2018-05-11T03:29:43.082Z,95955
2018-05-11T03:30:20.653Z,95956
2018-05-11T03:30:58.196Z,95956
2018-05-11T03:31:35.820Z,95958
2018-05-11T03:32:14.132Z,95952
2018-05-11T03:32:51.512Z,95955
2018-05-11T03:33:29.108Z,95956
2018-05-11T03:34:06.693Z,95954
2018-05-11T03:34:44.105Z,95956
2018-05-11T03:35:21.657Z,95954
2018-05-11T03:35:58.974Z,95950
2018-05-11T03:36:36.346Z,95960
2018-05-11T03:37:13.872Z,95956
2018-05-11T03:37:51.467Z,95959
2018-05-11T03:38:29.035Z,95960
2018-05-11T03:39:06.662Z,95955
2018-05-11T03:39:44.244Z,95961
2018-05-11T03:40:21.810Z,95958
2018-05-11T03:40:59.509Z,95959
2018-05-11T03:41:37.191Z,95960
2018-05-11T03:42:14.597Z,95961
2018-05-11T03:42:52.776Z,95957
2018-05-11T03:43:30.006Z,95958
2018-05-11T03:44:07.571Z,95959
2018-05-11T03:44:45.177Z,95964
2018-05-11T03:45:22.725Z,95958
2018-05-11T03:46:00.175Z,95960
2018-05-11T03:46:38.434Z,95960
2018-05-11T03:47:15.992Z,95957
2018-05-11T03:47:54.286Z,95963
2018-05-11T03:48:31.775Z,95959
2018-05-11T03:49:09.383Z,95957
2018-05-11T03:49:46.947Z,95955
2018-05-11T03:50:24.492Z,95956
2018-05-11T03:51:02.174Z,95958
2018-05-11T03:51:39.707Z,95954
2018-05-11T03:52:17.163Z,95952
2018-05-11T03:52:55.334Z,95956
2018-05-11T03:53:32.686Z,95955
2018-05-11T03:54:10.296Z,95954
2018-05-11T03:54:47.902Z,95955
2018-05-11T03:55:25.479Z,95952
2018-05-11T03:56:03.045Z,95955
2018-05-11T03:56:40.612Z,95956
2018-05-11T03:57:18.255Z,95956
2018-05-11T03:57:55.664Z,95953
2018-05-11T03:58:33.973Z,95954
2018-05-11T03:59:11.547Z,95955
2018-05-11T03:59:49.146Z,95948
2018-05-11T04:00:27.488Z,95951
2018-05-11T04:01:05.810Z,95948
2018-05-11T04:01:43.548Z,95946
2018-05-11T04:02:21.099Z,95950
2018-05-11T04:02:58.633Z,95948
2018-05-11T04:03:36.831Z,95947
2018-05-11T04:04:14.208Z,95945
2018-05-11T04:04:51.671Z,95950
2018-05-11T04:05:29.219Z,95950
2018-05-11T04:06:06.587Z,95949
2018-05-11T04:06:44.026Z,95954
2018-05-11T04:07:21.580Z,95952
2018-05-11T04:07:59.126Z,95951
2018-05-11T04:08:36.695Z,95951
2018-05-11T04:09:14.186Z,95951
2018-05-11T04:09:51.712Z,95952
2018-05-11T04:10:29.066Z,95952
2018-05-11T04:11:06.681Z,95947
2018-05-11T04:11:44.091Z,95946
2018-05-11T04:12:21.448Z,95948
2018-05-11T04:12:59.740Z,95945
2018-05-11T04:13:37.125Z,95955
2018-05-11T04:14:14.720Z,95950
2018-05-11T04:14:52.270Z,95953
2018-05-11T04:15:29.851Z,95947
2018-05-11T04:16:08.043Z,95949
2018-05-11T04:16:45.641Z,95949
2018-05-11T04:17:23.921Z,95946
2018-05-11T04:18:01.536Z,95951
2018-05-11T04:18:39.107Z,95951
2018-05-11T04:19:16.685Z,95948
2018-05-11T04:19:54.235Z,95948
2018-05-11T04:20:31.834Z,95947
2018-05-11T04:21:09.432Z,95947
2018-05-11T04:21:47.826Z,95944
2018-05-11T04:22:25.185Z,95946
2018-05-11T04:23:02.627Z,95944
2018-05-11T04:23:40.220Z,95949
2018-05-11T04:24:17.754Z,95947
2018-05-11T04:24:55.926Z,95949
2018-05-11T04:25:33.295Z,95948
2018-05-11T04:26:10.897Z,95951
2018-05-11T04:26:49.088Z,95953
2018-05-11T04:27:26.683Z,95949
2018-05-11T04:28:04.849Z,95953
2018-05-11T04:28:42.523Z,95951
2018-05-11T04:29:19.872Z,95952
2018-05-11T04:29:57.411Z,95953
2018-05-11T04:30:34.940Z,95954
2018-05-11T04:31:13.146Z,95957
2018-05-11T04:31:50.770Z,95955
2018-05-11T04:32:28.203Z,95957
2018-05-11T04:33:05.831Z,95949
2018-05-11T04:33:43.360Z,95955
2018-05-11T04:34:20.993Z,95956
2018-05-11T04:34:58.426Z,95955
2018-05-11T04:35:36.556Z,95955
2018-05-11T04:36:14.123Z,95954
2018-05-11T04:36:52.309Z,95955
2018-05-11T04:37:30.007Z,95953
2018-05-11T04:38:07.494Z,95949
2018-05-11T04:38:45.076Z,95952
2018-05-11T04:39:22.576Z,95954
2018-05-11T04:40:00.109Z,95953
2018-05-11T04:40:37.697Z,95958
2018-05-11T04:41:15.246Z,95951
2018-05-11T04:41:52.848Z,95953
2018-05-11T04:42:30.395Z,95952
2018-05-11T04:43:08.535Z,95950
2018-05-11T04:43:46.847Z,95952
2018-05-11T04:44:25.138Z,95950
2018-05-11T04:45:02.732Z,95955
2018-05-11T04:45:40.076Z,95955
2018-05-11T04:46:17.575Z,95953
2018-05-11T04:46:55.906Z,95955
2018-05-11T04:47:33.422Z,95956
2018-05-11T04:48:11.536Z,95957
2018-05-11T04:48:49.099Z,95956
2018-05-11T04:49:27.419Z,95953
2018-05-11T04:50:05.033Z,95957
2018-05-11T04:50:42.439Z,95957
2018-05-11T04:51:20.601Z,95955
2018-05-11T04:51:58.170Z,95955
2018-05-11T04:52:36.361Z,95962
2018-05-11T04:53:14.463Z,95961
2018-05-11T04:53:51.924Z,95955
2018-05-11T04:54:30.039Z,95959
2018-05-11T04:55:07.612Z,95959
2018-05-11T04:55:45.180Z,95958
2018-05-11T04:56:22.694Z,95964
2018-05-11T04:57:00.252Z,95962
2018-05-11T04:57:37.850Z,95959
2018-05-11T04:58:15.398Z,95960
2018-05-11T04:58:53.000Z,95959
2018-05-11T04:59:30.414Z,95960
2018-05-11T05:00:07.972Z,95963
2018-05-11T05:00:45.573Z,95964
2018-05-11T05:01:23.082Z,95967
2018-05-11T05:02:00.476Z,95967
2018-05-11T05:02:38.152Z,95964
2018-05-11T05:03:16.463Z,95969
2018-05-11T05:03:53.963Z,95970
2018-05-11T05:04:32.133Z,95962
2018-05-11T05:05:10.467Z,95965
2018-05-11T05:05:48.066Z,95964
2018-05-11T05:06:25.510Z,95966
2018-05-11T05:07:03.097Z,95965
2018-05-11T05:07:40.677Z,95962
2018-05-11T05:08:18.053Z,95964
2018-05-11T05:08:55.568Z,95967
2018-05-11T05:09:33.966Z,95969
2018-05-11T05:10:11.523Z,95966
2018-05-11T05:10:49.891Z,95968
2018-05-11T05:11:27.395Z,95965
2018-05-11T05:12:04.938Z,95965
2018-05-11T05:12:42.506Z,95967
2018-05-11T05:13:20.063Z,95965
2018-05-11T05:13:57.607Z,95968
2018-05-11T05:14:35.203Z,95970
2018-05-11T05:15:13.491Z,95970
2018-05-11T05:15:50.878Z,95971
2018-05-11T05:16:28.438Z,95969
2018-05-11T05:17:06.059Z,95972
2018-05-11T05:17:43.675Z,95965
2018-05-11T05:18:21.302Z,95966
2018-05-11T05:18:58.722Z,95969
2018-05-11T05:19:36.243Z,95968
2018-05-11T05:20:13.816Z,95969
2018-05-11T05:20:51.399Z,95969
2018-05-11T05:21:28.986Z,95966
2018-05-11T05:22:06.545Z,95964
2018-05-11T05:22:44.702Z,95966
2018-05-11T05:23:22.850Z,95963
2018-05-11T05:24:00.357Z,95967
2018-05-11T05:24:37.957Z,95971
2018-05-11T05:25:16.299Z,95964
2018-05-11T05:25:54.599Z,95968
2018-05-11T05:26:31.948Z,95966
2018-05-11T05:27:09.597Z,95968
2018-05-11T05:27:47.205Z,95969
2018-05-11T05:28:24.599Z,95967
2018-05-11T05:29:02.944Z,95970
2018-05-11T05:29:40.464Z,95972
2018-05-11T05:30:18.002Z,95971
2018-05-11T05:30:55.558Z,95973
2018-05-11T05:31:33.178Z,95971
2018-05-11T05:32:10.772Z,95975
2018-05-11T05:32:48.426Z,95971
2018-05-11T05:33:26.015Z,95971
2018-05-11T05:34:03.366Z,95974
2018-05-11T05:34:40.813Z,95969
2018-05-11T05:35:18.331Z,95971
2018-05-11T05:35:55.966Z,95968
2018-05-11T05:36:33.564Z,95966
2018-05-11T05:37:11.080Z,95963
2018-05-11T05:37:48.591Z,95962
2018-05-11T05:38:26.160Z,95967
2018-05-11T05:39:03.650Z,95963
2018-05-11T05:39:41.126Z,95963
2018-05-11T05:40:18.668Z,95967
2018-05-11T05:40:56.047Z,95965
2018-05-11T05:41:33.560Z,95969
2018-05-11T05:42:11.114Z,95967
2018-05-11T05:42:48.707Z,95969
2018-05-11T05:43:26.310Z,95966
2018-05-11T05:44:03.823Z,95967
2018-05-11T05:44:41.209Z,95967
2018-05-11T05:45:19.543Z,95964
2018-05-11T05:45:57.113Z,95974
2018-05-11T05:46:35.225Z,95967
2018-05-11T05:47:13.500Z,95962
2018-05-11T05:47:51.821Z,95966
2018-05-11T05:48:29.195Z,95966
2018-05-11T05:49:06.767Z,95967
2018-05-11T05:49:44.252Z,95964
2018-05-11T05:50:21.712Z,95969
2018-05-11T05:50:59.325Z,95965
2018-05-11T05:51:36.745Z,95970
2018-05-11T05:52:14.359Z,95971
2018-05-11T05:52:51.847Z,95969
2018-05-11T05:53:30.136Z,95972
2018-05-11T05:54:07.750Z,95969
2018-05-11T05:54:45.274Z,95964
2018-05-11T05:55:22.665Z,95972
2018-05-11T05:56:00.248Z,95965
2018-05-11T05:56:37.774Z,95969
2018-05-11T05:57:15.360Z,95974
2018-05-11T05:57:53.028Z,95971
2018-05-11T05:58:31.326Z,95970
2018-05-11T05:59:08.915Z,95971
2018-05-11T05:59:46.487Z,95974
2018-05-11T06:00:24.010Z,95970
2018-05-11T06:01:01.555Z,95974
2018-05-11T06:01:39.117Z,95974
2018-05-11T06:02:16.699Z,95969
2018-05-11T06:02:54.244Z,95975
2018-05-11T06:03:31.643Z,95972
2018-05-11T06:04:09.226Z,95972
2018-05-11T06:04:46.809Z,95972
2018-05-11T06:05:24.435Z,95978
2018-05-11T06:06:02.688Z,95972
2018-05-11T06:06:40.033Z,95973
2018-05-11T06:07:17.527Z,95975
2018-05-11T06:07:55.132Z,95974
2018-05-11T06:08:32.719Z,95973
2018-05-11T06:09:10.253Z,95970
2018-05-11T06:09:47.606Z,95972
2018-05-11T06:10:25.162Z,95971
2018-05-11T06:11:02.584Z,95969
2018-05-11T06:11:40.107Z,95973
2018-05-11T06:12:17.692Z,95965
2018-05-11T06:12:55.284Z,95973
2018-05-11T06:13:32.842Z,95974
2018-05-11T06:14:11.044Z,95974
2018-05-11T06:14:48.615Z,95973
2018-05-11T06:15:26.164Z,95975
2018-05-11T06:16:03.538Z,95975
2018-05-11T06:16:40.924Z,95977
2018-05-11T06:17:18.439Z,95974
2018-05-11T06:17:55.874Z,95974
2018-05-11T06:18:33.388Z,95979
2018-05-11T06:19:11.023Z,95970
2018-05-11T06:19:48.554Z,95970
2018-05-11T06:20:26.179Z,95974
2018-05-11T06:21:03.726Z,95969
2018-05-11T06:21:41.351Z,95969
2018-05-11T06:22:19.014Z,95972
2018-05-11T06:22:56.550Z,95969
2018-05-11T06:23:34.167Z,95966
2018-05-11T06:24:12.441Z,95963
2018-05-11T06:24:49.925Z,95964
2018-05-11T06:25:28.198Z,95967
2018-05-11T06:26:06.405Z,95967
2018-05-11T06:26:43.759Z,95967
2018-05-11T06:27:21.893Z,95967
2018-05-11T06:27:59.479Z,95966
2018-05-11T06:28:36.786Z,95968
2018-05-11T06:29:14.300Z,95967
2018-05-11T06:29:51.852Z,95964
2018-05-11T06:30:29.259Z,95966
2018-05-11T06:31:06.851Z,95966
2018-05-11T06:31:44.437Z,95966
2018-05-11T06:32:21.812Z,95968
2018-05-11T06:32:59.361Z,95967
2018-05-11T06:33:36.725Z,95964
2018-05-11T06:34:14.251Z,95964
2018-05-11T06:34:51.847Z,95965
2018-05-11T06:35:29.316Z,95962
2018-05-11T06:36:06.764Z,95966
2018-05-11T06:36:44.884Z,95965
2018-05-11T06:37:22.465Z,95966
2018-05-11T06:38:00.029Z,95965
2018-05-11T06:38:37.638Z,95965
2018-05-11T06:39:15.185Z,95965
2018-05-11T06:39:53.316Z,95966
2018-05-11T06:40:30.933Z,95967
2018-05-11T06:41:09.065Z,95971
2018-05-11T06:41:47.155Z,95960
2018-05-11T06:42:24.768Z,95968
2018-05-11T06:43:02.325Z,95968
2018-05-11T06:43:39.691Z,95972
2018-05-11T06:44:17.050Z,95968
2018-05-11T06:44:54.410Z,95968
2018-05-11T06:45:32.056Z,95965
2018-05-11T06:46:09.633Z,95967
2018-05-11T06:46:47.221Z,95965
2018-05-11T06:47:24.716Z,95969
2018-05-11T06:48:02.258Z,95963
2018-05-11T06:48:39.742Z,95960
2018-05-11T06:49:17.297Z,95963
2018-05-11T06:49:54.657Z,95961
2018-05-11T06:50:31.972Z,95965
2018-05-11T06:51:09.550Z,95965
2018-05-11T06:51:47.120Z,95961
2018-05-11T06:52:24.708Z,95962
2018-05-11T06:53:02.195Z,95964
2018-05-11T06:53:39.591Z,95962
2018-05-11T06:54:17.131Z,95961
2018-05-11T06:54:55.229Z,95961
2018-05-11T06:55:32.843Z,95961
2018-05-11T06:56:10.411Z,95962
2018-05-11T06:56:48.020Z,95965
2018-05-11T06:57:25.444Z,95964
2018-05-11T06:58:03.746Z,95964
2018-05-11T06:58:41.273Z,95965
2018-05-11T06:59:18.794Z,95962
2018-05-11T06:59:56.190Z,95965
2018-05-11T07:00:33.764Z,95960
2018-05-11T07:01:11.574Z,95963
2018-05-11T07:01:49.075Z,95969
2018-05-11T07:02:26.643Z,95966
2018-05-11T07:03:05.019Z,95968
2018-05-11T07:03:42.460Z,95960
2018-05-11T07:04:19.994Z,95965
2018-05-11T07:04:57.602Z,95962
2018-05-11T07:05:35.121Z,95963
2018-05-11T07:06:13.464Z,95963
2018-05-11T07:06:51.002Z,95956
2018-05-11T07:07:28.409Z,95958
2018-05-11T07:08:05.993Z,95961
2018-05-11T07:08:43.448Z,95960
2018-05-11T07:09:20.968Z,95962
2018-05-11T07:09:58.510Z,95960
2018-05-11T07:10:36.036Z,95959
2018-05-11T07:11:13.584Z,95957
2018-05-11T07:11:50.961Z,95958
2018-05-11T07:12:28.557Z,95957
2018-05-11T07:13:05.934Z,95954
2018-05-11T07:13:43.424Z,95960
2018-05-11T07:14:21.131Z,95958
2018-05-11T07:14:58.765Z,95952
2018-05-11T07:15:36.176Z,95952
2018-05-11T07:16:13.717Z,95957
2018-05-11T07:16:51.076Z,95956
2018-05-11T07:17:29.406Z,95949
2018-05-11T07:18:06.743Z,95955
2018-05-11T07:18:44.260Z,95952
2018-05-11T07:19:21.870Z,95950
2018-05-11T07:19:59.432Z,95952
2018-05-11T07:20:36.953Z,95953
2018-05-11T07:21:14.476Z,95945
2018-05-11T07:21:51.971Z,95947
2018-05-11T07:22:30.283Z,95938
2018-05-11T07:23:07.860Z,95944
2018-05-11T07:23:45.418Z,95945
2018-05-11T07:24:22.926Z,95943
2018-05-11T07:25:00.383Z,95939
2018-05-11T07:25:38.006Z,95938
2018-05-11T07:26:15.618Z,95944
2018-05-11T07:26:53.139Z,95945
2018-05-11T07:27:31.303Z,95942
2018-05-11T07:28:09.407Z,95938
2018-05-11T07:28:46.915Z,95940
2018-05-11T07:29:24.468Z,95942
2018-05-11T07:30:01.974Z,95946
2018-05-11T07:30:39.479Z,95946
2018-05-11T07:31:17.004Z,95945
2018-05-11T07:31:54.572Z,95950
2018-05-11T07:32:32.016Z,95949
2018-05-11T07:33:09.408Z,95951
2018-05-11T07:33:46.808Z,95947
2018-05-11T07:34:24.171Z,95957
2018-05-11T07:35:01.797Z,95953
2018-05-11T07:35:39.026Z,95948
2018-05-11T07:36:16.533Z,95954
2018-05-11T07:36:54.846Z,95949
2018-05-11T07:37:32.391Z,95957
2018-05-11T07:38:09.748Z,95951
2018-05-11T07:38:47.290Z,95951
2018-05-11T07:39:25.481Z,95954
2018-05-11T07:40:02.881Z,95950
2018-05-11T07:40:40.408Z,95954
2018-05-11T07:41:17.922Z,95953
2018-05-11T07:41:55.367Z,95945
2018-05-11T07:42:32.972Z,95946
2018-05-11T07:43:10.568Z,95946
2018-05-11T07:43:48.125Z,95948
2018-05-11T07:44:25.625Z,95945
2018-05-11T07:45:03.093Z,95944
2018-05-11T07:45:40.686Z,95944
2018-05-11T07:46:18.039Z,95940
2018-05-11T07:46:55.618Z,95940
2018-05-11T07:47:33.189Z,95946
2018-05-11T07:48:10.829Z,95941
2018-05-11T07:48:48.364Z,95937
2018-05-11T07:49:25.960Z,95941
2018-05-11T07:50:04.236Z,95937
2018-05-11T07:50:41.813Z,95937
2018-05-11T07:51:19.383Z,95939
2018-05-11T07:51:56.980Z,95939
2018-05-11T07:52:35.264Z,95935
2018-05-11T07:53:12.898Z,95936
2018-05-11T07:53:51.269Z,95937
2018-05-11T07:54:28.711Z,95938
2018-05-11T07:55:06.258Z,95941
2018-05-11T07:55:43.892Z,95936
2018-05-11T07:56:21.550Z,95942
2018-05-11T07:56:58.996Z,95938
2018-05-11T07:57:36.573Z,95935
2018-05-11T07:58:14.138Z,95935
2018-05-11T07:58:51.710Z,95939
2018-05-11T07:59:29.251Z,95935
2018-05-11T08:00:07.399Z,95933
2018-05-11T08:00:45.023Z,95932
2018-05-11T08:01:22.531Z,95932
2018-05-11T08:02:00.121Z,95933
2018-05-11T08:02:37.710Z,95927
2018-05-11T08:03:15.322Z,95931
2018-05-11T08:03:53.675Z,95929
2018-05-11T08:04:31.264Z,95930